createdAt,value
2023-01-09T00:00:49.257Z,973.69
2023-01-09T00:01:50.272Z,973.63
2023-01-09T00:02:49.296Z,973.61
2023-01-09T00:03:49.313Z,973.61
2023-01-09T00:04:49.210Z,973.64
2023-01-09T00:05:49.234Z,973.58
2023-01-09T00:06:49.205Z,973.58
2023-01-09T00:07:49.172Z,973.47
2023-01-09T00:08:49.203Z,973.56
2023-01-09T00:09:49.174Z,973.48
2023-01-09T00:10:49.220Z,973.48
2023-01-09T00:11:49.160Z,973.54
2023-01-09T00:12:49.146Z,973.45
2023-01-09T00:13:49.120Z,973.46
2023-01-09T00:14:49.098Z,973.48
2023-01-09T00:15:49.117Z,973.50
2023-01-09T00:16:49.130Z,973.56
2023-01-09T00:17:49.067Z,973.46
2023-01-09T00:18:49.054Z,973.44
2023-01-09T00:19:49.096Z,973.40
2023-01-09T00:20:49.034Z,973.40
2023-01-09T00:21:49.035Z,973.30
2023-01-09T00:22:49.037Z,973.32
2023-01-09T00:23:49.030Z,973.34
2023-01-09T00:24:49.022Z,973.29
2023-01-09T00:25:49.010Z,973.26
2023-01-09T00:26:48.998Z,973.25
2023-01-09T00:27:49.039Z,973.27
2023-01-09T00:28:49.091Z,973.23
2023-01-09T00:29:48.965Z,973.28
2023-01-09T00:30:48.993Z,973.24
2023-01-09T00:31:48.913Z,973.27
2023-01-09T00:32:48.926Z,973.21
2023-01-09T00:33:48.910Z,973.29
2023-01-09T00:34:48.882Z,973.29
2023-01-09T00:35:48.902Z,973.28
2023-01-09T00:36:48.879Z,973.31
2023-01-09T00:37:48.868Z,973.34
2023-01-09T00:38:48.790Z,973.23
2023-01-09T00:39:49.860Z,973.28
2023-01-09T00:40:48.802Z,973.28
2023-01-09T00:41:48.796Z,973.25
2023-01-09T00:42:48.816Z,973.19
2023-01-09T00:43:48.792Z,973.22
2023-01-09T00:44:48.758Z,973.23
2023-01-09T00:45:48.785Z,973.20
2023-01-09T00:46:48.737Z,973.22
2023-01-09T00:47:48.738Z,973.19
2023-01-09T00:48:48.741Z,973.22
2023-01-09T00:49:48.698Z,973.27
2023-01-09T00:50:48.782Z,973.31
2023-01-09T00:51:48.698Z,973.28
2023-01-09T00:52:48.671Z,973.31
2023-01-09T00:53:48.688Z,973.20
2023-01-09T00:54:48.674Z,973.26
2023-01-09T00:55:48.640Z,973.26
2023-01-09T00:56:48.695Z,973.26
2023-01-09T00:57:48.635Z,973.31
2023-01-09T00:58:48.656Z,973.27
2023-01-09T00:59:48.626Z,973.34
2023-01-09T01:00:48.596Z,973.29
2023-01-09T01:01:48.736Z,973.31
2023-01-09T01:02:48.610Z,973.35
2023-01-09T01:03:48.558Z,973.31
2023-01-09T01:04:48.558Z,973.35
2023-01-09T01:05:48.599Z,973.30
2023-01-09T01:06:48.504Z,973.28
2023-01-09T01:07:49.522Z,973.26
2023-01-09T01:08:48.502Z,973.21
2023-01-09T01:09:48.510Z,973.26
2023-01-09T01:10:48.506Z,973.28
2023-01-09T01:11:48.506Z,973.23
2023-01-09T01:12:48.500Z,973.27
2023-01-09T01:13:48.464Z,973.23
2023-01-09T01:14:48.462Z,973.25
2023-01-09T01:15:48.438Z,973.26
2023-01-09T01:16:48.452Z,973.23
2023-01-09T01:17:48.393Z,973.23
2023-01-09T01:18:48.413Z,973.18
2023-01-09T01:19:48.432Z,973.22
2023-01-09T01:20:48.411Z,973.15
2023-01-09T01:21:48.359Z,973.18
2023-01-09T01:22:48.328Z,973.16
2023-01-09T01:23:48.368Z,973.15
2023-01-09T01:24:48.327Z,973.12
2023-01-09T01:25:48.335Z,973.12
2023-01-09T01:26:48.304Z,973.14
2023-01-09T01:27:48.303Z,973.12
2023-01-09T01:28:48.303Z,973.16
2023-01-09T01:29:48.277Z,973.13
2023-01-09T01:30:48.284Z,973.07
2023-01-09T01:31:48.327Z,973.13
2023-01-09T01:32:48.241Z,973.11
2023-01-09T01:33:48.236Z,973.12
2023-01-09T01:34:48.211Z,973.11
2023-01-09T01:35:48.297Z,973.09
2023-01-09T01:36:48.192Z,973.16
2023-01-09T01:37:48.181Z,973.12
2023-01-09T01:38:48.212Z,973.11
2023-01-09T01:39:49.173Z,973.06
2023-01-09T01:40:48.212Z,973.06
2023-01-09T01:41:48.154Z,973.10
2023-01-09T01:42:48.144Z,973.17
2023-01-09T01:43:48.106Z,973.10
2023-01-09T01:44:48.120Z,973.06
2023-01-09T01:45:48.136Z,973.03
2023-01-09T01:46:48.136Z,973.03
2023-01-09T01:47:48.037Z,973.07
2023-01-09T01:48:48.037Z,973.02
2023-01-09T01:49:48.073Z,972.99
2023-01-09T01:50:48.054Z,972.97
2023-01-09T01:51:48.056Z,973.06
2023-01-09T01:52:48.039Z,972.99
2023-01-09T01:53:47.976Z,973.06
2023-01-09T01:54:47.993Z,973.02
2023-01-09T01:55:47.962Z,972.96
2023-01-09T01:56:47.962Z,973.05
2023-01-09T01:57:48.026Z,972.95
2023-01-09T01:58:47.911Z,973.00
2023-01-09T01:59:47.941Z,973.03
2023-01-09T02:00:47.897Z,972.99
2023-01-09T02:01:48.047Z,973.00
2023-01-09T02:02:47.935Z,972.98
2023-01-09T02:03:47.901Z,973.00
2023-01-09T02:04:47.905Z,972.90
2023-01-09T02:05:47.831Z,972.92
2023-01-09T02:06:47.911Z,972.89
2023-01-09T02:07:47.849Z,972.90
2023-01-09T02:08:47.865Z,972.93
2023-01-09T02:09:47.800Z,972.87
2023-01-09T02:10:47.794Z,972.75
2023-01-09T02:11:47.795Z,972.89
2023-01-09T02:12:47.897Z,972.77
2023-01-09T02:13:47.822Z,972.91
2023-01-09T02:14:47.834Z,972.78
2023-01-09T02:15:47.755Z,972.93
2023-01-09T02:16:47.776Z,972.85
2023-01-09T02:17:47.766Z,972.79
2023-01-09T02:18:47.806Z,972.82
2023-01-09T02:19:47.726Z,972.83
2023-01-09T02:20:47.710Z,972.77
2023-01-09T02:21:47.697Z,972.72
2023-01-09T02:22:47.687Z,972.73
2023-01-09T02:23:47.741Z,972.78
2023-01-09T02:24:47.663Z,972.80
2023-01-09T02:25:47.642Z,972.79
2023-01-09T02:26:47.642Z,972.69
2023-01-09T02:27:47.658Z,972.71
2023-01-09T02:28:47.619Z,972.75
2023-01-09T02:29:47.609Z,972.82
2023-01-09T02:30:47.714Z,972.74
2023-01-09T02:31:47.594Z,972.73
2023-01-09T02:32:47.562Z,972.73
2023-01-09T02:33:47.568Z,972.73
2023-01-09T02:34:47.540Z,972.69
2023-01-09T02:35:47.585Z,972.66
2023-01-09T02:36:47.554Z,972.75
2023-01-09T02:37:47.485Z,972.76
2023-01-09T02:38:47.513Z,972.69
2023-01-09T02:39:47.527Z,972.70
2023-01-09T02:40:47.466Z,972.67
2023-01-09T02:41:47.481Z,972.73
2023-01-09T02:42:47.468Z,972.70
2023-01-09T02:43:47.418Z,972.65
2023-01-09T02:44:47.429Z,972.74
2023-01-09T02:45:47.496Z,972.64
2023-01-09T02:46:47.436Z,972.63
2023-01-09T02:47:47.391Z,972.67
2023-01-09T02:48:47.432Z,972.67
2023-01-09T02:49:47.398Z,972.72
2023-01-09T02:50:47.396Z,972.64
2023-01-09T02:51:47.395Z,972.55
2023-01-09T02:52:47.375Z,972.60
2023-01-09T02:53:49.170Z,972.61
2023-01-09T02:54:47.370Z,972.62
2023-01-09T02:55:47.327Z,972.51
2023-01-09T02:56:47.373Z,972.56
2023-01-09T02:57:47.372Z,972.55
2023-01-09T02:58:47.309Z,972.49
2023-01-09T02:59:47.252Z,972.50
2023-01-09T03:00:47.306Z,972.51
2023-01-09T03:01:47.366Z,972.48
2023-01-09T03:02:47.300Z,972.47
2023-01-09T03:03:47.289Z,972.49
2023-01-09T03:04:47.223Z,972.48
2023-01-09T03:05:47.216Z,972.51
2023-01-09T03:06:47.208Z,972.48
2023-01-09T03:07:47.217Z,972.53
2023-01-09T03:08:47.189Z,972.50
2023-01-09T03:09:47.164Z,972.42
2023-01-09T03:10:47.331Z,972.49
2023-01-09T03:11:47.197Z,972.50
2023-01-09T03:12:47.175Z,972.47
2023-01-09T03:13:47.146Z,972.57
2023-01-09T03:14:47.114Z,972.50
2023-01-09T03:15:47.123Z,972.53
2023-01-09T03:16:47.086Z,972.53
2023-01-09T03:17:47.120Z,972.57
2023-01-09T03:18:47.061Z,972.50
2023-01-09T03:19:47.093Z,972.58
2023-01-09T03:20:47.031Z,972.53
2023-01-09T03:21:47.054Z,972.60
2023-01-09T03:22:47.010Z,972.61
2023-01-09T03:23:47.062Z,972.64
2023-01-09T03:24:47.010Z,972.70
2023-01-09T03:25:47.006Z,972.66
2023-01-09T03:26:46.991Z,972.70
2023-01-09T03:27:47.065Z,972.67
2023-01-09T03:28:46.970Z,972.66
2023-01-09T03:29:46.963Z,972.66
2023-01-09T03:30:46.931Z,972.67
2023-01-09T03:31:47.049Z,972.63
2023-01-09T03:32:46.922Z,972.68
2023-01-09T03:33:46.890Z,972.67
2023-01-09T03:34:46.878Z,972.65
2023-01-09T03:35:46.877Z,972.68
2023-01-09T03:36:46.926Z,972.69
2023-01-09T03:37:46.862Z,972.72
2023-01-09T03:38:46.880Z,972.66
2023-01-09T03:39:46.833Z,972.74
2023-01-09T03:40:46.869Z,972.62
2023-01-09T03:41:46.826Z,972.64
2023-01-09T03:42:46.841Z,972.68
2023-01-09T03:43:46.800Z,972.68
2023-01-09T03:44:46.790Z,972.68
2023-01-09T03:45:46.792Z,972.55
2023-01-09T03:46:46.777Z,972.58
2023-01-09T03:47:46.751Z,972.62
2023-01-09T03:48:46.864Z,972.68
2023-01-09T03:49:46.721Z,972.70
2023-01-09T03:50:46.724Z,972.61
2023-01-09T03:51:46.732Z,972.66
2023-01-09T03:52:46.687Z,972.71
2023-01-09T03:53:46.671Z,972.71
2023-01-09T03:54:46.671Z,972.70
2023-01-09T03:55:46.656Z,972.72
2023-01-09T03:56:46.665Z,972.75
2023-01-09T03:57:46.696Z,972.72
2023-01-09T03:58:46.664Z,972.80
2023-01-09T03:59:46.641Z,972.77
2023-01-09T04:00:46.654Z,972.72
2023-01-09T04:01:46.657Z,972.89
2023-01-09T04:02:46.605Z,972.89
2023-01-09T04:03:46.577Z,972.92
2023-01-09T04:04:46.547Z,972.94
2023-01-09T04:05:46.545Z,972.92
2023-01-09T04:06:46.562Z,972.92
2023-01-09T04:07:46.519Z,972.90
2023-01-09T04:08:46.544Z,972.98
2023-01-09T04:09:46.516Z,973.03
2023-01-09T04:10:46.492Z,973.14
2023-01-09T04:11:46.532Z,973.11
2023-01-09T04:12:46.446Z,973.20
2023-01-09T04:13:46.486Z,973.15
2023-01-09T04:14:46.449Z,973.20
2023-01-09T04:15:46.443Z,973.19
2023-01-09T04:16:46.509Z,973.18
2023-01-09T04:17:47.051Z,973.21
2023-01-09T04:18:46.429Z,973.19
2023-01-09T04:19:46.414Z,973.17
2023-01-09T04:20:46.390Z,973.16
2023-01-09T04:21:46.342Z,973.12
2023-01-09T04:22:46.390Z,973.25
2023-01-09T04:23:46.331Z,973.31
2023-01-09T04:24:46.317Z,973.32
2023-01-09T04:25:46.339Z,973.25
2023-01-09T04:26:46.333Z,973.36
2023-01-09T04:27:47.672Z,973.29
2023-01-09T04:28:46.303Z,973.30
2023-01-09T04:29:46.306Z,973.35
2023-01-09T04:30:46.290Z,973.33
2023-01-09T04:31:46.328Z,973.32
2023-01-09T04:32:46.294Z,973.36
2023-01-09T04:33:46.297Z,973.44
2023-01-09T04:34:46.264Z,973.49
2023-01-09T04:35:46.263Z,973.51
2023-01-09T04:36:46.200Z,973.55
2023-01-09T04:37:46.233Z,973.58
2023-01-09T04:38:46.247Z,973.50
2023-01-09T04:39:46.168Z,973.59
2023-01-09T04:40:46.223Z,973.58
2023-01-09T04:41:46.204Z,973.53
2023-01-09T04:42:46.185Z,973.58
2023-01-09T04:43:46.152Z,973.73
2023-01-09T04:44:46.116Z,973.70
2023-01-09T04:45:46.151Z,973.69
2023-01-09T04:46:46.119Z,973.73
2023-01-09T04:47:46.177Z,973.74
2023-01-09T04:48:46.083Z,973.76
2023-01-09T04:49:46.075Z,973.75
2023-01-09T04:50:46.039Z,973.83
2023-01-09T04:51:46.067Z,973.83
2023-01-09T04:52:46.066Z,973.86
2023-01-09T04:53:46.070Z,973.87
2023-01-09T04:54:46.048Z,973.94
2023-01-09T04:55:46.021Z,973.93
2023-01-09T04:56:46.028Z,973.86
2023-01-09T04:57:45.975Z,973.87
2023-01-09T04:58:45.961Z,973.90
2023-01-09T04:59:45.970Z,973.85
2023-01-09T05:00:46.087Z,973.83
2023-01-09T05:01:46.086Z,973.80
2023-01-09T05:02:45.972Z,973.80
2023-01-09T05:03:45.956Z,973.76
2023-01-09T05:04:46.010Z,973.84
2023-01-09T05:05:45.886Z,973.89
2023-01-09T05:06:45.880Z,973.92
2023-01-09T05:07:45.887Z,973.90
2023-01-09T05:08:45.888Z,973.92
2023-01-09T05:09:45.893Z,973.93
2023-01-09T05:10:45.879Z,973.94
2023-01-09T05:11:45.807Z,973.98
2023-01-09T05:12:46.428Z,973.97
2023-01-09T05:13:45.772Z,973.98
2023-01-09T05:14:45.763Z,973.98
2023-01-09T05:15:45.703Z,974.04
2023-01-09T05:16:45.781Z,974.00
2023-01-09T05:17:45.742Z,974.02
2023-01-09T05:18:45.739Z,974.07
2023-01-09T05:19:45.686Z,974.12
2023-01-09T05:20:45.703Z,974.04
2023-01-09T05:21:45.787Z,974.12
2023-01-09T05:22:45.676Z,974.12
2023-01-09T05:23:45.674Z,974.16
2023-01-09T05:24:45.688Z,974.20
2023-01-09T05:25:45.631Z,974.24
2023-01-09T05:26:45.635Z,974.25
2023-01-09T05:27:45.604Z,974.24
2023-01-09T05:28:45.628Z,974.20
2023-01-09T05:29:45.633Z,974.23
2023-01-09T05:30:45.581Z,974.22
2023-01-09T05:31:45.553Z,974.20
2023-01-09T05:32:45.546Z,974.23
2023-01-09T05:33:45.575Z,974.27
2023-01-09T05:34:45.922Z,974.23
2023-01-09T05:35:45.531Z,974.39
2023-01-09T05:36:45.542Z,974.29
2023-01-09T05:37:45.509Z,974.34
2023-01-09T05:38:45.520Z,974.32
2023-01-09T05:39:45.481Z,974.32
2023-01-09T05:40:45.485Z,974.33
2023-01-09T05:41:45.526Z,974.36
2023-01-09T05:42:45.445Z,974.33
2023-01-09T05:43:45.426Z,974.30
2023-01-09T05:44:45.403Z,974.34
2023-01-09T05:45:45.477Z,974.35
2023-01-09T05:46:45.398Z,974.40
2023-01-09T05:47:45.367Z,974.37
2023-01-09T05:48:45.471Z,974.36
2023-01-09T05:49:45.436Z,974.34
2023-01-09T05:50:45.394Z,974.38
2023-01-09T05:51:45.413Z,974.49
2023-01-09T05:52:45.352Z,974.49
2023-01-09T05:53:45.339Z,974.45
2023-01-09T05:54:45.295Z,974.53
2023-01-09T05:55:45.322Z,974.49
2023-01-09T05:56:45.411Z,974.53
2023-01-09T05:57:45.559Z,974.61
2023-01-09T05:58:45.233Z,974.61
2023-01-09T05:59:45.244Z,974.63
2023-01-09T06:00:45.250Z,974.63
2023-01-09T06:01:45.257Z,974.60
2023-01-09T06:02:46.102Z,974.62
2023-01-09T06:03:45.221Z,974.67
2023-01-09T06:04:45.209Z,974.67
2023-01-09T06:05:45.270Z,974.60
2023-01-09T06:06:45.243Z,974.67
2023-01-09T06:07:45.165Z,974.62
2023-01-09T06:08:45.186Z,974.68
2023-01-09T06:09:45.130Z,974.67
2023-01-09T06:10:45.134Z,974.71
2023-01-09T06:11:45.148Z,974.67
2023-01-09T06:12:45.121Z,974.70
2023-01-09T06:13:45.072Z,974.78
2023-01-09T06:14:45.113Z,974.76
2023-01-09T06:15:45.290Z,974.70
2023-01-09T06:16:45.149Z,974.73
2023-01-09T06:17:45.109Z,974.79
2023-01-09T06:18:45.148Z,974.80
2023-01-09T06:19:45.105Z,974.79
2023-01-09T06:20:45.046Z,974.81
2023-01-09T06:21:45.069Z,974.83
2023-01-09T06:22:44.998Z,974.87
2023-01-09T06:23:45.003Z,974.92
2023-01-09T06:24:44.973Z,974.95
2023-01-09T06:25:44.977Z,974.92
2023-01-09T06:26:44.942Z,974.97
2023-01-09T06:27:45.479Z,974.96
2023-01-09T06:28:45.890Z,974.98
2023-01-09T06:29:44.910Z,975.05
2023-01-09T06:30:45.278Z,975.03
2023-01-09T06:31:44.893Z,975.11
2023-01-09T06:32:45.886Z,975.14
2023-01-09T06:33:44.838Z,975.11
2023-01-09T06:34:44.835Z,975.16
2023-01-09T06:35:44.855Z,975.10
2023-01-09T06:36:44.837Z,975.15
2023-01-09T06:37:44.870Z,975.15
2023-01-09T06:38:44.839Z,975.11
2023-01-09T06:39:44.768Z,975.11
2023-01-09T06:40:44.781Z,975.22
2023-01-09T06:41:46.024Z,975.19
2023-01-09T06:42:44.774Z,975.21
2023-01-09T06:43:44.751Z,975.15
2023-01-09T06:44:44.744Z,975.15
2023-01-09T06:45:44.743Z,975.19
2023-01-09T06:46:44.694Z,975.23
2023-01-09T06:47:44.749Z,975.23
2023-01-09T06:48:44.667Z,975.23
2023-01-09T06:49:44.710Z,975.30
2023-01-09T06:50:44.721Z,975.20
2023-01-09T06:51:44.652Z,975.33
2023-01-09T06:52:44.654Z,975.39
2023-01-09T06:53:44.647Z,975.42
2023-01-09T06:54:44.622Z,975.40
2023-01-09T06:55:44.572Z,975.33
2023-01-09T06:56:44.596Z,975.32
2023-01-09T06:57:44.589Z,975.27
2023-01-09T06:58:45.516Z,975.34
2023-01-09T06:59:44.569Z,975.35
2023-01-09T07:00:44.565Z,975.38
2023-01-09T07:01:44.657Z,975.39
2023-01-09T07:02:44.588Z,975.40
2023-01-09T07:03:44.558Z,975.42
2023-01-09T07:04:44.501Z,975.51
2023-01-09T07:05:44.473Z,975.48
2023-01-09T07:06:44.481Z,975.44
2023-01-09T07:07:44.516Z,975.50
2023-01-09T07:08:45.046Z,975.47
2023-01-09T07:09:44.440Z,975.47
2023-01-09T07:10:44.496Z,975.54
2023-01-09T07:11:44.435Z,975.55
2023-01-09T07:12:44.446Z,975.65
2023-01-09T07:13:44.457Z,975.66
2023-01-09T07:14:44.402Z,975.65
2023-01-09T07:15:44.456Z,975.70
2023-01-09T07:16:44.413Z,975.62
2023-01-09T07:17:44.358Z,975.60
2023-01-09T07:18:44.368Z,975.53
2023-01-09T07:19:44.366Z,975.64
2023-01-09T07:20:44.348Z,975.64
2023-01-09T07:21:44.326Z,975.69
2023-01-09T07:22:44.299Z,975.74
2023-01-09T07:23:44.331Z,975.73
2023-01-09T07:24:44.385Z,975.72
2023-01-09T07:25:44.268Z,975.75
2023-01-09T07:26:44.327Z,975.79
2023-01-09T07:27:44.244Z,975.80
2023-01-09T07:28:44.242Z,975.84
2023-01-09T07:29:44.273Z,975.75
2023-01-09T07:30:44.236Z,975.79
2023-01-09T07:31:44.193Z,975.79
2023-01-09T07:32:44.251Z,975.78
2023-01-09T07:33:44.199Z,975.84
2023-01-09T07:34:44.206Z,975.82
2023-01-09T07:35:44.166Z,975.89
2023-01-09T07:36:44.142Z,975.86
2023-01-09T07:37:44.131Z,975.87
2023-01-09T07:38:44.125Z,975.93
2023-01-09T07:39:44.118Z,975.93
2023-01-09T07:40:44.071Z,975.93
2023-01-09T07:41:44.872Z,975.92
2023-01-09T07:42:44.084Z,975.97
2023-01-09T07:43:44.089Z,975.99
2023-01-09T07:44:44.089Z,976.02
2023-01-09T07:45:44.071Z,976.01
2023-01-09T07:46:44.016Z,976.04
2023-01-09T07:47:44.037Z,976.11
2023-01-09T07:48:44.019Z,976.15
2023-01-09T07:49:44.019Z,976.14
2023-01-09T07:50:43.986Z,976.16
2023-01-09T07:51:43.986Z,976.18
2023-01-09T07:52:43.977Z,976.13
2023-01-09T07:53:43.955Z,976.14
2023-01-09T07:54:43.957Z,976.13
2023-01-09T07:55:43.943Z,976.10
2023-01-09T07:56:44.009Z,976.10
2023-01-09T07:57:43.915Z,976.16
2023-01-09T07:58:43.916Z,976.25
2023-01-09T07:59:44.091Z,976.11
2023-01-09T08:00:43.878Z,976.09
2023-01-09T08:01:44.053Z,976.10
2023-01-09T08:02:43.903Z,976.10
2023-01-09T08:03:44.109Z,976.15
2023-01-09T08:04:43.876Z,976.13
2023-01-09T08:05:43.873Z,976.16
2023-01-09T08:06:43.842Z,976.17
2023-01-09T08:07:43.852Z,976.14
2023-01-09T08:08:43.824Z,976.21
2023-01-09T08:09:43.823Z,976.20
2023-01-09T08:10:43.813Z,976.11
2023-01-09T08:11:43.804Z,976.21
2023-01-09T08:12:43.734Z,976.29
2023-01-09T08:13:43.739Z,976.25
2023-01-09T08:14:43.829Z,976.17
2023-01-09T08:15:43.815Z,976.14
2023-01-09T08:16:43.738Z,976.16
2023-01-09T08:17:43.731Z,976.18
2023-01-09T08:18:43.749Z,976.26
2023-01-09T08:19:43.694Z,976.15
2023-01-09T08:20:43.732Z,976.12
2023-01-09T08:21:43.700Z,976.16
2023-01-09T08:22:43.677Z,976.18
2023-01-09T08:23:43.665Z,976.19
2023-01-09T08:24:43.665Z,976.16
2023-01-09T08:25:43.612Z,976.13
2023-01-09T08:26:43.677Z,976.10
2023-01-09T08:27:43.628Z,976.15
2023-01-09T08:28:43.567Z,976.23
2023-01-09T08:29:44.540Z,976.12
2023-01-09T08:30:43.627Z,976.18
2023-01-09T08:31:43.615Z,976.16
2023-01-09T08:32:43.549Z,976.21
2023-01-09T08:33:43.511Z,976.20
2023-01-09T08:34:43.577Z,976.18
2023-01-09T08:35:43.606Z,976.15
2023-01-09T08:36:44.382Z,976.16
2023-01-09T08:37:43.480Z,976.15
2023-01-09T08:38:44.377Z,976.17
2023-01-09T08:39:43.529Z,976.13
2023-01-09T08:40:43.472Z,976.22
2023-01-09T08:41:43.465Z,976.22
2023-01-09T08:42:43.437Z,976.17
2023-01-09T08:43:43.414Z,976.27
2023-01-09T08:44:43.428Z,976.19
2023-01-09T08:45:43.390Z,976.17
2023-01-09T08:46:43.493Z,976.11
2023-01-09T08:47:43.370Z,976.09
2023-01-09T08:48:43.318Z,976.10
2023-01-09T08:49:43.354Z,976.12
2023-01-09T08:50:43.328Z,976.16
2023-01-09T08:51:43.294Z,976.18
2023-01-09T08:52:43.313Z,976.22
2023-01-09T08:53:43.280Z,976.26
2023-01-09T08:54:43.960Z,976.13
2023-01-09T08:55:43.321Z,976.24
2023-01-09T08:56:43.225Z,976.28
2023-01-09T08:57:43.266Z,976.20
2023-01-09T08:58:43.257Z,976.27
2023-01-09T08:59:43.204Z,976.25
2023-01-09T09:00:43.295Z,976.34
2023-01-09T09:01:43.242Z,976.35
2023-01-09T09:02:43.321Z,976.34
2023-01-09T09:03:43.187Z,976.37
2023-01-09T09:04:43.207Z,976.35
2023-01-09T09:05:44.672Z,976.36
2023-01-09T09:06:43.185Z,976.32
2023-01-09T09:07:43.176Z,976.47
2023-01-09T09:08:43.136Z,976.36
2023-01-09T09:09:43.162Z,976.40
2023-01-09T09:10:43.540Z,976.52
2023-01-09T09:11:43.094Z,976.56
2023-01-09T09:12:43.163Z,976.38
2023-01-09T09:13:43.083Z,976.40
2023-01-09T09:14:43.147Z,976.53
2023-01-09T09:15:43.145Z,976.48
2023-01-09T09:16:43.109Z,976.45
2023-01-09T09:17:43.049Z,976.38
2023-01-09T09:18:43.080Z,976.52
2023-01-09T09:19:43.011Z,976.49
2023-01-09T09:20:42.991Z,976.56
2023-01-09T09:21:42.999Z,976.63
2023-01-09T09:22:43.086Z,976.60
2023-01-09T09:23:42.975Z,976.64
2023-01-09T09:24:42.992Z,976.61
2023-01-09T09:25:42.917Z,976.54
2023-01-09T09:26:44.598Z,976.61
2023-01-09T09:27:42.901Z,976.59
2023-01-09T09:28:42.931Z,976.57
2023-01-09T09:29:42.957Z,976.68
2023-01-09T09:30:42.912Z,976.73
2023-01-09T09:31:42.981Z,976.66
2023-01-09T09:32:42.866Z,976.71
2023-01-09T09:33:42.855Z,976.70
2023-01-09T09:34:42.878Z,976.65
2023-01-09T09:35:42.841Z,976.60
2023-01-09T09:36:42.917Z,976.68
2023-01-09T09:37:42.856Z,976.65
2023-01-09T09:38:42.826Z,976.71
2023-01-09T09:39:42.800Z,976.68
2023-01-09T09:40:42.827Z,976.60
2023-01-09T09:41:42.746Z,976.64
2023-01-09T09:42:42.765Z,976.69
2023-01-09T09:43:43.490Z,976.56
2023-01-09T09:44:48.365Z,976.65
2023-01-09T09:45:44.713Z,976.67
2023-01-09T09:46:42.723Z,976.70
2023-01-09T09:47:42.770Z,976.64
2023-01-09T09:48:42.697Z,976.74
2023-01-09T09:49:43.519Z,976.71
2023-01-09T09:50:43.652Z,976.70
2023-01-09T09:51:42.665Z,976.71
2023-01-09T09:52:42.644Z,976.69
2023-01-09T09:53:42.726Z,976.74
2023-01-09T09:54:42.623Z,976.63
2023-01-09T09:55:42.589Z,976.74
2023-01-09T09:56:42.630Z,976.72
2023-01-09T09:57:42.651Z,976.69
2023-01-09T09:58:42.568Z,976.79
2023-01-09T09:59:42.589Z,976.73
2023-01-09T10:00:42.634Z,976.69
2023-01-09T10:01:42.564Z,976.75
2023-01-09T10:02:42.600Z,976.75
2023-01-09T10:03:42.536Z,976.62
2023-01-09T10:04:42.556Z,976.70
2023-01-09T10:05:42.532Z,976.57
2023-01-09T10:06:42.493Z,976.73
2023-01-09T10:07:43.484Z,976.57
2023-01-09T10:08:42.492Z,976.72
2023-01-09T10:09:42.487Z,976.69
2023-01-09T10:10:42.452Z,976.68
2023-01-09T10:11:42.511Z,976.61
2023-01-09T10:12:42.487Z,976.69
2023-01-09T10:13:42.417Z,976.67
2023-01-09T10:14:42.431Z,976.54
2023-01-09T10:15:44.036Z,976.63
2023-01-09T10:16:42.389Z,976.77
2023-01-09T10:17:42.420Z,976.78
2023-01-09T10:18:42.405Z,976.71
2023-01-09T10:19:42.364Z,976.68
2023-01-09T10:20:42.387Z,976.73
2023-01-09T10:21:42.376Z,976.64
2023-01-09T10:22:42.345Z,976.65
2023-01-09T10:23:42.355Z,976.62
2023-01-09T10:24:42.288Z,976.60
2023-01-09T10:25:42.265Z,976.70
2023-01-09T10:26:42.275Z,976.54
2023-01-09T10:27:42.345Z,976.62
2023-01-09T10:28:42.291Z,976.42
2023-01-09T10:29:42.218Z,976.59
2023-01-09T10:30:42.229Z,976.46
2023-01-09T10:31:42.259Z,976.50
2023-01-09T10:32:42.851Z,976.48
2023-01-09T10:33:42.188Z,976.56
2023-01-09T10:34:42.163Z,976.47
2023-01-09T10:35:47.788Z,976.45
2023-01-09T10:36:44.236Z,976.52
2023-01-09T10:37:42.149Z,976.44
2023-01-09T10:38:42.141Z,976.50
2023-01-09T10:39:42.160Z,976.58
2023-01-09T10:40:42.090Z,976.52
2023-01-09T10:41:42.157Z,976.65
2023-01-09T10:42:42.080Z,976.54
2023-01-09T10:43:42.092Z,976.59
2023-01-09T10:44:42.091Z,976.51
2023-01-09T10:45:42.140Z,976.51
2023-01-09T10:46:42.132Z,976.43
2023-01-09T10:47:42.037Z,976.54
2023-01-09T10:48:42.033Z,976.48
2023-01-09T10:49:42.002Z,976.52
2023-01-09T10:50:42.117Z,976.63
2023-01-09T10:51:41.998Z,976.52
2023-01-09T10:52:41.983Z,976.56
2023-01-09T10:53:41.996Z,976.47
2023-01-09T10:54:41.961Z,976.42
2023-01-09T10:55:41.984Z,976.43
2023-01-09T10:56:41.931Z,976.53
2023-01-09T10:57:42.011Z,976.45
2023-01-09T10:58:41.890Z,976.42
2023-01-09T10:59:41.896Z,976.45
2023-01-09T11:00:41.880Z,976.35
2023-01-09T11:01:41.899Z,976.38
2023-01-09T11:02:41.963Z,976.53
2023-01-09T11:03:41.895Z,976.35
2023-01-09T11:04:41.858Z,976.43
2023-01-09T11:05:41.895Z,976.52
2023-01-09T11:06:41.855Z,976.50
2023-01-09T11:07:41.814Z,976.42
2023-01-09T11:08:41.788Z,976.45
2023-01-09T11:09:41.796Z,976.54
2023-01-09T11:10:41.789Z,976.48
2023-01-09T11:11:41.744Z,976.58
2023-01-09T11:12:41.731Z,976.48
2023-01-09T11:13:41.718Z,976.52
2023-01-09T11:14:41.730Z,976.48
2023-01-09T11:15:41.754Z,976.58
2023-01-09T11:16:41.725Z,976.61
2023-01-09T11:17:41.713Z,976.60
2023-01-09T11:18:41.684Z,976.57
2023-01-09T11:19:41.682Z,976.56
2023-01-09T11:20:41.710Z,976.67
2023-01-09T11:21:41.693Z,976.59
2023-01-09T11:22:41.610Z,976.52
2023-01-09T11:23:41.661Z,976.58
2023-01-09T11:24:41.590Z,976.65
2023-01-09T11:25:41.586Z,976.59
2023-01-09T11:26:41.586Z,976.69
2023-01-09T11:27:41.565Z,976.69
2023-01-09T11:28:41.602Z,976.65
2023-01-09T11:29:41.571Z,976.67
2023-01-09T11:30:41.533Z,976.64
2023-01-09T11:31:41.555Z,976.71
2023-01-09T11:32:41.546Z,976.75
2023-01-09T11:33:41.502Z,976.69
2023-01-09T11:34:42.793Z,976.65
2023-01-09T11:35:41.474Z,976.66
2023-01-09T11:36:41.542Z,976.73
2023-01-09T11:37:41.448Z,976.68
2023-01-09T11:38:41.432Z,976.64
2023-01-09T11:39:41.983Z,976.63
2023-01-09T11:40:41.439Z,976.70
2023-01-09T11:41:41.410Z,976.71
2023-01-09T11:42:41.381Z,976.69
2023-01-09T11:43:41.426Z,976.66
2023-01-09T11:44:41.377Z,976.77
2023-01-09T11:45:45.697Z,976.68
2023-01-09T11:46:42.588Z,976.69
2023-01-09T11:47:41.358Z,976.76
2023-01-09T11:48:41.321Z,976.72
2023-01-09T11:49:41.399Z,976.73
2023-01-09T11:50:41.325Z,976.82
2023-01-09T11:51:41.328Z,976.76
2023-01-09T11:52:41.321Z,976.75
2023-01-09T11:53:41.245Z,976.77
2023-01-09T11:54:41.267Z,976.76
2023-01-09T11:55:42.845Z,976.72
2023-01-09T11:56:41.239Z,976.78
2023-01-09T11:57:41.243Z,976.74
2023-01-09T11:58:41.212Z,976.84
2023-01-09T11:59:41.232Z,976.74
2023-01-09T12:00:41.192Z,976.74
2023-01-09T12:01:41.188Z,976.73
2023-01-09T12:02:41.987Z,976.78
2023-01-09T12:03:41.176Z,976.79
2023-01-09T12:04:41.182Z,976.79
2023-01-09T12:05:41.151Z,976.80
2023-01-09T12:06:41.104Z,976.82
2023-01-09T12:07:41.092Z,976.82
2023-01-09T12:08:41.100Z,976.70
2023-01-09T12:09:41.086Z,976.69
2023-01-09T12:10:41.071Z,976.87
2023-01-09T12:11:41.083Z,976.77
2023-01-09T12:12:41.067Z,976.85
2023-01-09T12:13:41.095Z,976.69
2023-01-09T12:14:41.065Z,976.75
2023-01-09T12:15:41.043Z,976.70
2023-01-09T12:16:41.111Z,976.69
2023-01-09T12:17:41.120Z,976.76
2023-01-09T12:18:42.058Z,976.68
2023-01-09T12:19:41.971Z,976.75
2023-01-09T12:20:40.980Z,976.75
2023-01-09T12:21:40.983Z,976.79
2023-01-09T12:22:41.859Z,976.85
2023-01-09T12:23:41.119Z,976.77
2023-01-09T12:24:40.965Z,976.85
2023-01-09T12:25:40.948Z,976.82
2023-01-09T12:26:40.931Z,976.71
2023-01-09T12:27:40.894Z,976.73
2023-01-09T12:28:40.953Z,976.73